sensor_id;sensor_type;location;lat;lon;timestamp;pressure;altitude;pressure_sealevel;temperature;humidity
17525;BME280;40431;52.198;9.902;2022-09-14T00:00:42;99932.63;;;15.12;94.22
17525;BME280;40431;52.198;9.902;2022-09-14T00:03:10;99931.03;;;15.09;94.08
17525;BME280;40431;52.198;9.902;2022-09-14T00:05:36;99929.75;;;15.13;94.80
17525;BME280;40431;52.198;9.902;2022-09-14T00:08:03;99930.72;;;15.12;94.37
17525;BME280;40431;52.198;9.902;2022-09-14T00:10:30;99927.16;;;15.12;94.35
17525;BME280;40431;52.198;9.902;2022-09-14T00:12:57;99923.28;;;15.14;94.80
17525;BME280;40431;52.198;9.902;2022-09-14T00:15:24;99921.53;;;15.13;94.56
17525;BME280;40431;52.198;9.902;2022-09-14T00:17:51;99918.66;;;15.15;94.38
17525;BME280;40431;52.198;9.902;2022-09-14T00:20:19;99918.06;;;15.11;94.32
17525;BME280;40431;52.198;9.902;2022-09-14T00:22:45;99918.06;;;15.11;93.95
17525;BME280;40431;52.198;9.902;2022-09-14T00:25:12;99923.38;;;15.13;93.61
17525;BME280;40431;52.198;9.902;2022-09-14T00:27:39;99913.59;;;15.10;92.84
17525;BME280;40431;52.198;9.902;2022-09-14T00:30:06;99910.03;;;15.10;92.69
17525;BME280;40431;52.198;9.902;2022-09-14T00:32:33;99902.69;;;15.10;93.43
17525;BME280;40431;52.198;9.902;2022-09-14T00:34:59;99897.97;;;15.12;93.40
17525;BME280;40431;52.198;9.902;2022-09-14T00:37:27;99887.03;;;15.12;93.82
17525;BME280;40431;52.198;9.902;2022-09-14T00:39:53;99887.19;;;15.11;93.35
17525;BME280;40431;52.198;9.902;2022-09-14T00:42:20;99886.59;;;15.07;90.48
17525;BME280;40431;52.198;9.902;2022-09-14T00:45:01;99889.69;;;14.93;90.50
17525;BME280;40431;52.198;9.902;2022-09-14T00:47:29;99880.75;;;14.81;92.62
17525;BME280;40431;52.198;9.902;2022-09-14T00:49:58;99884.63;;;14.78;94.74
17525;BME280;40431;52.198;9.902;2022-09-14T00:52:29;99889.50;;;14.75;94.12
17525;BME280;40431;52.198;9.902;2022-09-14T00:54:58;99890.34;;;14.75;94.66
17525;BME280;40431;52.198;9.902;2022-09-14T00:57:27;99894.81;;;14.76;95.19
17525;BME280;40431;52.198;9.902;2022-09-14T00:59:58;99887.63;;;14.75;94.64
17525;BME280;40431;52.198;9.902;2022-09-14T01:02:26;99887.63;;;14.75;95.41
17525;BME280;40431;52.198;9.902;2022-09-14T01:04:53;99876.56;;;14.77;96.20
17525;BME280;40431;52.198;9.902;2022-09-14T01:07:31;99878.28;;;14.68;94.06
17525;BME280;40431;52.198;9.902;2022-09-14T01:10:04;99877.31;;;14.58;94.25
17525;BME280;40431;52.198;9.902;2022-09-14T01:12:43;99874.81;;;14.66;96.87
17525;BME280;40431;52.198;9.902;2022-09-14T01:15:19;99876.81;;;14.64;96.21
17525;BME280;40431;52.198;9.902;2022-09-14T01:17:52;99875.44;;;14.58;95.78
17525;BME280;40431;52.198;9.902;2022-09-14T01:20:25;99881.66;;;14.60;96.16
17525;BME280;40431;52.198;9.902;2022-09-14T01:23:00;99885.09;;;14.62;95.92
17525;BME280;40431;52.198;9.902;2022-09-14T01:25:44;99880.25;;;14.66;95.81
17525;BME280;40431;52.198;9.902;2022-09-14T01:28:22;99884.25;;;14.62;94.89
17525;BME280;40431;52.198;9.902;2022-09-14T01:30:53;99883.50;;;14.60;94.79
17525;BME280;40431;52.198;9.902;2022-09-14T01:33:24;99876.41;;;14.47;95.16
17525;BME280;40431;52.198;9.902;2022-09-14T01:35:56;99875.22;;;14.40;95.26
17525;BME280;40431;52.198;9.902;2022-09-14T01:38:28;99874.50;;;14.38;95.39
17525;BME280;40431;52.198;9.902;2022-09-14T01:40:57;99869.13;;;14.27;95.61
17525;BME280;40431;52.198;9.902;2022-09-14T01:43:28;99875.13;;;14.20;96.01
17525;BME280;40431;52.198;9.902;2022-09-14T01:45:59;99871.78;;;14.17;95.84
17525;BME280;40431;52.198;9.902;2022-09-14T01:48:31;99866.59;;;14.14;96.94
17525;BME280;40431;52.198;9.902;2022-09-14T01:51:08;99866.94;;;14.20;97.20
17525;BME280;40431;52.198;9.902;2022-09-14T01:53:39;99865.94;;;14.22;97.60
17525;BME280;40431;52.198;9.902;2022-09-14T01:56:11;99862.75;;;14.16;97.03
17525;BME280;40431;52.198;9.902;2022-09-14T01:58:44;99861.75;;;14.17;97.97
17525;BME280;40431;52.198;9.902;2022-09-14T02:01:15;99857.63;;;14.23;98.59
17525;BME280;40431;52.198;9.902;2022-09-14T02:03:45;99852.78;;;14.27;98.62
17525;BME280;40431;52.198;9.902;2022-09-14T02:06:18;99844.59;;;14.27;98.53
17525;BME280;40431;52.198;9.902;2022-09-14T02:08:46;99853.91;;;14.24;97.20
17525;BME280;40431;52.198;9.902;2022-09-14T02:11:13;99843.00;;;14.24;97.14
17525;BME280;40431;52.198;9.902;2022-09-14T02:13:41;99859.50;;;14.23;97.33
17525;BME280;40431;52.198;9.902;2022-09-14T02:16:08;99863.78;;;14.25;98.74
17525;BME280;40431;52.198;9.902;2022-09-14T02:18:34;99848.84;;;14.19;98.83
17525;BME280;40431;52.198;9.902;2022-09-14T02:21:05;99853.69;;;14.16;98.30
17525;BME280;40431;52.198;9.902;2022-09-14T02:23:33;99863.88;;;14.14;98.70
17525;BME280;40431;52.198;9.902;2022-09-14T02:26:00;99857.56;;;14.13;98.55
17525;BME280;40431;52.198;9.902;2022-09-14T02:28:27;99858.72;;;14.11;98.76
17525;BME280;40431;52.198;9.902;2022-09-14T02:31:06;99867.00;;;14.09;99.50
17525;BME280;40431;52.198;9.902;2022-09-14T02:33:44;99863.28;;;14.10;99.66
17525;BME280;40431;52.198;9.902;2022-09-14T02:36:16;99862.28;;;14.11;99.21
17525;BME280;40431;52.198;9.902;2022-09-14T02:38:50;99851.50;;;14.10;99.01
17525;BME280;40431;52.198;9.902;2022-09-14T02:41:25;99853.34;;;14.09;99.38
17525;BME280;40431;52.198;9.902;2022-09-14T02:44:02;99852.13;;;14.13;99.63
17525;BME280;40431;52.198;9.902;2022-09-14T02:46:36;99850.97;;;14.16;99.84
17525;BME280;40431;52.198;9.902;2022-09-14T02:49:09;99846.09;;;14.19;100.00
17525;BME280;40431;52.198;9.902;2022-09-14T02:51:41;99841.41;;;14.22;100.00
17525;BME280;40431;52.198;9.902;2022-09-14T02:54:13;99831.78;;;14.17;100.00
17525;BME280;40431;52.198;9.902;2022-09-14T02:56:41;99832.47;;;14.19;99.73
17525;BME280;40431;52.198;9.902;2022-09-14T02:59:08;99826.78;;;14.23;99.83
17525;BME280;40431;52.198;9.902;2022-09-14T03:01:36;99832.22;;;14.23;100.00
17525;BME280;40431;52.198;9.902;2022-09-14T03:04:03;99832.47;;;14.19;99.88
17525;BME280;40431;52.198;9.902;2022-09-14T03:06:30;99839.94;;;14.17;98.56
17525;BME280;40431;52.198;9.902;2022-09-14T03:08:56;99831.16;;;14.14;98.90
17525;BME280;40431;52.198;9.902;2022-09-14T03:11:23;99837.75;;;14.11;99.37
17525;BME280;40431;52.198;9.902;2022-09-14T03:13:49;99835.75;;;14.13;100.00
17525;BME280;40431;52.198;9.902;2022-09-14T03:16:17;99836.91;;;14.11;99.79
17525;BME280;40431;52.198;9.902;2022-09-14T03:18:45;99831.44;;;14.11;99.40
17525;BME280;40431;52.198;9.902;2022-09-14T03:21:14;99828.81;;;14.09;99.17
17525;BME280;40431;52.198;9.902;2022-09-14T03:23:43;99819.31;;;14.03;98.93
17525;BME280;40431;52.198;9.902;2022-09-14T03:26:11;99816.47;;;14.05;98.74
17525;BME280;40431;52.198;9.902;2022-09-14T03:28:38;99813.75;;;14.05;99.30
17525;BME280;40431;52.198;9.902;2022-09-14T03:31:07;99811.75;;;14.07;99.69
17525;BME280;40431;52.198;9.902;2022-09-14T03:33:40;99812.03;;;14.04;98.76
17525;BME280;40431;52.198;9.902;2022-09-14T03:36:13;99813.88;;;14.03;99.01
17525;BME280;40431;52.198;9.902;2022-09-14T03:38:42;99807.56;;;14.03;99.59
17525;BME280;40431;52.198;9.902;2022-09-14T03:41:09;99807.28;;;14.06;99.83
17525;BME280;40431;52.198;9.902;2022-09-14T03:43:36;99802.84;;;14.05;100.00
17525;BME280;40431;52.198;9.902;2022-09-14T03:46:06;99799.41;;;14.03;100.00
17525;BME280;40431;52.198;9.902;2022-09-14T03:48:33;99794.94;;;14.02;99.50
17525;BME280;40431;52.198;9.902;2022-09-14T03:51:00;99789.75;;;13.99;99.10
17525;BME280;40431;52.198;9.902;2022-09-14T03:53:28;99794.63;;;13.95;98.58
17525;BME280;40431;52.198;9.902;2022-09-14T03:55:54;99790.56;;;13.90;98.20
17525;BME280;40431;52.198;9.902;2022-09-14T03:58:21;99781.78;;;13.86;98.60
17525;BME280;40431;52.198;9.902;2022-09-14T04:00:48;99772.50;;;13.89;99.48
17525;BME280;40431;52.198;9.902;2022-09-14T04:03:14;99772.03;;;13.83;99.02
17525;BME280;40431;52.198;9.902;2022-09-14T04:05:41;99778.47;;;13.82;99.72
17525;BME280;40431;52.198;9.902;2022-09-14T04:08:09;99780.47;;;13.80;100.00
17525;BME280;40431;52.198;9.902;2022-09-14T04:10:38;99769.56;;;13.80;100.00
17525;BME280;40431;52.198;9.902;2022-09-14T04:13:05;99765.25;;;13.78;99.53
17525;BME280;40431;52.198;9.902;2022-09-14T04:15:31;99766.38;;;13.75;98.90
17525;BME280;40431;52.198;9.902;2022-09-14T04:17:58;99773.09;;;13.71;99.16
17525;BME280;40431;52.198;9.902;2022-09-14T04:20:24;99771.38;;;13.70;99.26
17525;BME280;40431;52.198;9.902;2022-09-14T04:22:51;99766.91;;;13.69;99.72
17525;BME280;40431;52.198;9.902;2022-09-14T04:25:17;99776.69;;;13.72;99.94
17525;BME280;40431;52.198;9.902;2022-09-14T04:27:45;99780.81;;;13.66;99.47
17525;BME280;40431;52.198;9.902;2022-09-14T04:30:12;99777.22;;;13.65;99.42
17525;BME280;40431;52.198;9.902;2022-09-14T04:32:38;99779.94;;;13.65;100.00
17525;BME280;40431;52.198;9.902;2022-09-14T04:35:05;99779.22;;;13.63;99.70
17525;BME280;40431;52.198;9.902;2022-09-14T04:37:32;99782.06;;;13.62;99.94
17525;BME280;40431;52.198;9.902;2022-09-14T04:39:58;99774.03;;;13.60;100.00
17525;BME280;40431;52.198;9.902;2022-09-14T04:42:25;99778.59;;;13.60;100.00
17525;BME280;40431;52.198;9.902;2022-09-14T04:44:53;99780.47;;;13.59;100.00
17525;BME280;40431;52.198;9.902;2022-09-14T04:47:19;99781.72;;;13.55;100.00
17525;BME280;40431;52.198;9.902;2022-09-14T04:49:45;99781.47;;;13.58;100.00
17525;BME280;40431;52.198;9.902;2022-09-14T04:52:12;99786.06;;;13.58;99.81
17525;BME280;40431;52.198;9.902;2022-09-14T04:54:38;99782.84;;;13.52;99.09
17525;BME280;40431;52.198;9.902;2022-09-14T04:57:05;99781.63;;;13.45;99.13
17525;BME280;40431;52.198;9.902;2022-09-14T04:59:31;99775.34;;;13.33;99.50
17525;BME280;40431;52.198;9.902;2022-09-14T05:02:00;99771.44;;;13.26;100.00
17525;BME280;40431;52.198;9.902;2022-09-14T05:04:26;99766.59;;;13.30;100.00
17525;BME280;40431;52.198;9.902;2022-09-14T05:06:53;99764.25;;;13.36;100.00
17525;BME280;40431;52.198;9.902;2022-09-14T05:09:20;99773.88;;;13.41;100.00
17525;BME280;40431;52.198;9.902;2022-09-14T05:11:47;99774.00;;;13.39;100.00
17525;BME280;40431;52.198;9.902;2022-09-14T05:14:16;99776.47;;;13.42;100.00
17525;BME280;40431;52.198;9.902;2022-09-14T05:16:43;99778.19;;;13.43;100.00
17525;BME280;40431;52.198;9.902;2022-09-14T05:19:13;99786.22;;;13.45;100.00
17525;BME280;40431;52.198;9.902;2022-09-14T05:21:40;99792.53;;;13.45;100.00
17525;BME280;40431;52.198;9.902;2022-09-14T05:24:10;99781.63;;;13.45;100.00
17525;BME280;40431;52.198;9.902;2022-09-14T05:26:39;99786.84;;;13.48;100.00
17525;BME280;40431;52.198;9.902;2022-09-14T05:29:06;99787.56;;;13.50;100.00
17525;BME280;40431;52.198;9.902;2022-09-14T05:31:32;99782.13;;;13.50;100.00
17525;BME280;40431;52.198;9.902;2022-09-14T05:33:59;99788.31;;;13.52;100.00
17525;BME280;40431;52.198;9.902;2022-09-14T05:36:27;99778.41;;;13.51;100.00
17525;BME280;40431;52.198;9.902;2022-09-14T05:38:53;99778.91;;;13.45;100.00
17525;BME280;40431;52.198;9.902;2022-09-14T05:41:21;99778.47;;;13.40;100.00
17525;BME280;40431;52.198;9.902;2022-09-14T05:43:48;99776.22;;;13.34;100.00
17525;BME280;40431;52.198;9.902;2022-09-14T05:46:16;99782.66;;;13.33;100.00
17525;BME280;40431;52.198;9.902;2022-09-14T05:48:44;99779.69;;;13.36;100.00
17525;BME280;40431;52.198;9.902;2022-09-14T05:51:12;99777.50;;;13.30;100.00
17525;BME280;40431;52.198;9.902;2022-09-14T05:53:41;99780.94;;;13.32;100.00
17525;BME280;40431;52.198;9.902;2022-09-14T05:56:10;99778.06;;;13.33;100.00
17525;BME280;40431;52.198;9.902;2022-09-14T05:58:38;99775.25;;;13.35;100.00
17525;BME280;40431;52.198;9.902;2022-09-14T06:01:06;99776.09;;;13.35;100.00
17525;BME280;40431;52.198;9.902;2022-09-14T06:03:33;99774.34;;;13.34;100.00
17525;BME280;40431;52.198;9.902;2022-09-14T06:06:00;99769.28;;;13.41;100.00
17525;BME280;40431;52.198;9.902;2022-09-14T06:08:26;99768.16;;;13.44;100.00
17525;BME280;40431;52.198;9.902;2022-09-14T06:10:54;99757.03;;;13.47;100.00
17525;BME280;40431;52.198;9.902;2022-09-14T06:13:21;99756.88;;;13.48;100.00
17525;BME280;40431;52.198;9.902;2022-09-14T06:15:48;99756.47;;;13.53;100.00
17525;BME280;40431;52.198;9.902;2022-09-14T06:18:14;99759.28;;;13.63;100.00
17525;BME280;40431;52.198;9.902;2022-09-14T06:20:48;99762.34;;;13.69;100.00
17525;BME280;40431;52.198;9.902;2022-09-14T06:23:15;99755.63;;;13.74;100.00
17525;BME280;40431;52.198;9.902;2022-09-14T06:25:41;99762.13;;;13.82;100.00
17525;BME280;40431;52.198;9.902;2022-09-14T06:28:10;99762.44;;;13.89;100.00
17525;BME280;40431;52.198;9.902;2022-09-14T06:30:36;99751.00;;;13.95;100.00
17525;BME280;40431;52.198;9.902;2022-09-14T06:33:03;99754.06;;;14.02;100.00
17525;BME280;40431;52.198;9.902;2022-09-14T06:35:30;99754.91;;;14.02;100.00
17525;BME280;40431;52.198;9.902;2022-09-14T06:37:56;99755.38;;;14.08;100.00
17525;BME280;40431;52.198;9.902;2022-09-14T06:40:23;99750.22;;;14.14;100.00
17525;BME280;40431;52.198;9.902;2022-09-14T06:42:51;99751.69;;;14.18;100.00
17525;BME280;40431;52.198;9.902;2022-09-14T06:45:19;99749.41;;;14.24;100.00
17525;BME280;40431;52.198;9.902;2022-09-14T06:47:45;99749.88;;;14.29;100.00
17525;BME280;40431;52.198;9.902;2022-09-14T06:50:12;99754.03;;;14.33;100.00
17525;BME280;40431;52.198;9.902;2022-09-14T06:52:38;99749.91;;;14.39;100.00
17525;BME280;40431;52.198;9.902;2022-09-14T06:55:05;99746.16;;;14.40;100.00
17525;BME280;40431;52.198;9.902;2022-09-14T06:57:32;99746.03;;;14.41;99.71
17525;BME280;40431;52.198;9.902;2022-09-14T06:59:58;99745.47;;;14.47;100.00
17525;BME280;40431;52.198;9.902;2022-09-14T07:02:26;99751.25;;;14.54;99.49
17525;BME280;40431;52.198;9.902;2022-09-14T07:04:53;99747.38;;;14.57;99.21
17525;BME280;40431;52.198;9.902;2022-09-14T07:07:19;99757.00;;;14.61;98.86
17525;BME280;40431;52.198;9.902;2022-09-14T07:09:46;99747.56;;;14.65;98.65
17525;BME280;40431;52.198;9.902;2022-09-14T07:12:12;99745.88;;;14.74;98.93
17525;BME280;40431;52.198;9.902;2022-09-14T07:14:39;99752.47;;;14.81;98.78
17525;BME280;40431;52.198;9.902;2022-09-14T07:17:05;99763.13;;;14.84;98.17
17525;BME280;40431;52.198;9.902;2022-09-14T07:19:33;99757.97;;;14.91;98.50
17525;BME280;40431;52.198;9.902;2022-09-14T07:22:00;99768.31;;;14.97;98.62
17525;BME280;40431;52.198;9.902;2022-09-14T07:24:26;99766.03;;;15.02;98.02
17525;BME280;40431;52.198;9.902;2022-09-14T07:26:53;99764.03;;;15.04;97.13
17525;BME280;40431;52.198;9.902;2022-09-14T07:29:19;99765.47;;;15.08;96.71
17525;BME280;40431;52.198;9.902;2022-09-14T07:31:48;99765.16;;;15.11;96.80
17525;BME280;40431;52.198;9.902;2022-09-14T07:34:15;99759.44;;;15.14;97.03
17525;BME280;40431;52.198;9.902;2022-09-14T07:36:43;99758.69;;;15.22;97.95
17525;BME280;40431;52.198;9.902;2022-09-14T07:39:11;99752.38;;;15.31;97.39
17525;BME280;40431;52.198;9.902;2022-09-14T07:41:38;99754.69;;;15.36;96.24
17525;BME280;40431;52.198;9.902;2022-09-14T07:44:06;99755.28;;;15.40;95.51
17525;BME280;40431;52.198;9.902;2022-09-14T07:46:37;99744.75;;;15.45;95.04
17525;BME280;40431;52.198;9.902;2022-09-14T07:49:05;99743.91;;;15.44;94.28
17525;BME280;40431;52.198;9.902;2022-09-14T07:51:33;99746.22;;;15.49;93.71
17525;BME280;40431;52.198;9.902;2022-09-14T07:54:02;99747.91;;;15.50;93.28
17525;BME280;40431;52.198;9.902;2022-09-14T07:56:29;99745.63;;;15.55;92.97
17525;BME280;40431;52.198;9.902;2022-09-14T07:58:57;99747.78;;;15.61;92.89
17525;BME280;40431;52.198;9.902;2022-09-14T08:01:24;99754.50;;;15.67;91.97
17525;BME280;40431;52.198;9.902;2022-09-14T08:03:52;99747.03;;;15.69;90.78
17525;BME280;40431;52.198;9.902;2022-09-14T08:06:20;99737.81;;;15.70;89.72
17525;BME280;40431;52.198;9.902;2022-09-14T08:08:48;99739.38;;;15.73;89.50
17525;BME280;40431;52.198;9.902;2022-09-14T08:11:18;99744.44;;;15.77;88.14
17525;BME280;40431;52.198;9.902;2022-09-14T08:13:47;99747.63;;;15.82;85.88
17525;BME280;40431;52.198;9.902;2022-09-14T08:16:14;99752.09;;;15.83;84.87
17525;BME280;40431;52.198;9.902;2022-09-14T08:18:40;99740.53;;;15.90;85.21
17525;BME280;40431;52.198;9.902;2022-09-14T08:21:08;99747.84;;;15.99;84.65
17525;BME280;40431;52.198;9.902;2022-09-14T08:23:35;99742.06;;;16.02;84.36
17525;BME280;40431;52.198;9.902;2022-09-14T08:26:03;99739.06;;;16.05;83.06
17525;BME280;40431;52.198;9.902;2022-09-14T08:28:31;99743.22;;;16.09;83.85
17525;BME280;40431;52.198;9.902;2022-09-14T08:31:02;99744.06;;;16.10;84.62
17525;BME280;40431;52.198;9.902;2022-09-14T08:33:30;99746.66;;;16.11;83.67
17525;BME280;40431;52.198;9.902;2022-09-14T08:35:56;99740.00;;;16.24;84.08
17525;BME280;40431;52.198;9.902;2022-09-14T08:38:23;99739.25;;;16.31;84.86
17525;BME280;40431;52.198;9.902;2022-09-14T08:40:49;99731.00;;;16.41;86.23
17525;BME280;40431;52.198;9.902;2022-09-14T08:43:17;99736.97;;;16.55;84.83
17525;BME280;40431;52.198;9.902;2022-09-14T08:45:47;99735.31;;;16.62;83.05
17525;BME280;40431;52.198;9.902;2022-09-14T08:48:18;99738.47;;;16.67;83.28
17525;BME280;40431;52.198;9.902;2022-09-14T08:50:48;99744.66;;;16.69;82.63
17525;BME280;40431;52.198;9.902;2022-09-14T08:53:18;99747.00;;;16.64;82.24
17525;BME280;40431;52.198;9.902;2022-09-14T08:55:48;99740.69;;;16.63;82.58
17525;BME280;40431;52.198;9.902;2022-09-14T08:58:24;99737.16;;;16.71;83.87
17525;BME280;40431;52.198;9.902;2022-09-14T09:01:03;99731.47;;;16.82;84.35
17525;BME280;40431;52.198;9.902;2022-09-14T09:03:48;99730.97;;;16.97;84.76
17525;BME280;40431;52.198;9.902;2022-09-14T09:06:22;99734.88;;;17.12;82.17
17525;BME280;40431;52.198;9.902;2022-09-14T09:08:57;99732.31;;;17.29;81.46
17525;BME280;40431;52.198;9.902;2022-09-14T09:11:36;99730.97;;;17.33;81.15
17525;BME280;40431;52.198;9.902;2022-09-14T09:14:12;99728.22;;;17.51;81.70
17525;BME280;40431;52.198;9.902;2022-09-14T09:16:43;99720.28;;;17.66;81.21
17525;BME280;40431;52.198;9.902;2022-09-14T09:19:16;99714.84;;;17.74;79.79
17525;BME280;40431;52.198;9.902;2022-09-14T09:21:45;99713.50;;;17.78;78.26
17525;BME280;40431;52.198;9.902;2022-09-14T09:24:19;99715.44;;;17.86;78.19
17525;BME280;40431;52.198;9.902;2022-09-14T09:26:47;99711.94;;;17.94;79.20
17525;BME280;40431;52.198;9.902;2022-09-14T09:29:14;99695.16;;;18.05;78.86
17525;BME280;40431;52.198;9.902;2022-09-14T09:31:44;99698.66;;;18.15;78.46
17525;BME280;40431;52.198;9.902;2022-09-14T09:34:13;99692.53;;;18.22;78.69
17525;BME280;40431;52.198;9.902;2022-09-14T09:36:42;99691.84;;;18.28;77.52
17525;BME280;40431;52.198;9.902;2022-09-14T09:39:10;99687.81;;;18.40;78.79
17525;BME280;40431;52.198;9.902;2022-09-14T09:41:42;99704.31;;;18.48;77.35
17525;BME280;40431;52.198;9.902;2022-09-14T09:44:09;99700.84;;;18.46;74.83
17525;BME280;40431;52.198;9.902;2022-09-14T09:46:37;99698.28;;;18.45;76.15
17525;BME280;40431;52.198;9.902;2022-09-14T09:49:16;99698.81;;;18.48;77.78
17525;BME280;40431;52.198;9.902;2022-09-14T09:51:44;99696.75;;;18.50;76.18
17525;BME280;40431;52.198;9.902;2022-09-14T09:54:21;99700.53;;;18.49;74.15
17525;BME280;40431;52.198;9.902;2022-09-14T09:56:52;99685.75;;;18.50;75.52
17525;BME280;40431;52.198;9.902;2022-09-14T09:59:26;99674.47;;;18.53;73.70
17525;BME280;40431;52.198;9.902;2022-09-14T10:01:54;99660.03;;;18.51;73.33
17525;BME280;40431;52.198;9.902;2022-09-14T10:04:24;99666.53;;;18.50;71.95
17525;BME280;40431;52.198;9.902;2022-09-14T10:06:52;99654.34;;;18.45;71.48
17525;BME280;40431;52.198;9.902;2022-09-14T10:09:20;99662.94;;;18.50;70.99
17525;BME280;40431;52.198;9.902;2022-09-14T10:11:56;99663.28;;;18.47;69.06
17525;BME280;40431;52.198;9.902;2022-09-14T10:14:26;99684.06;;;18.49;69.03
17525;BME280;40431;52.198;9.902;2022-09-14T10:17:03;99688.69;;;18.49;70.64
17525;BME280;40431;52.198;9.902;2022-09-14T10:19:32;99699.59;;;18.32;71.31
17525;BME280;40431;52.198;9.902;2022-09-14T10:22:06;99697.44;;;18.52;71.63
17525;BME280;40431;52.198;9.902;2022-09-14T10:24:40;99687.84;;;18.57;71.32
17525;BME280;40431;52.198;9.902;2022-09-14T10:27:47;99683.25;;;18.65;72.25
17525;BME280;40431;52.198;9.902;2022-09-14T10:30:17;99677.59;;;18.75;70.92
17525;BME280;40431;52.198;9.902;2022-09-14T10:32:48;99666.09;;;18.72;70.98
17525;BME280;40431;52.198;9.902;2022-09-14T10:35:22;99668.66;;;18.73;71.00
17525;BME280;40431;52.198;9.902;2022-09-14T10:38:00;99651.50;;;18.71;71.52
17525;BME280;40431;52.198;9.902;2022-09-14T10:40:34;99655.63;;;18.75;69.09
17525;BME280;40431;52.198;9.902;2022-09-14T10:43:12;99645.50;;;18.76;68.60
17525;BME280;40431;52.198;9.902;2022-09-14T10:45:41;99651.38;;;18.89;70.36
17525;BME280;40431;52.198;9.902;2022-09-14T10:48:26;99641.44;;;18.96;69.48
17525;BME280;40431;52.198;9.902;2022-09-14T10:51:19;99642.28;;;18.97;70.28
17525;BME280;40431;52.198;9.902;2022-09-14T10:53:54;99647.78;;;18.97;68.92
17525;BME280;40431;52.198;9.902;2022-09-14T10:56:38;99648.81;;;18.96;69.86
17525;BME280;40431;52.198;9.902;2022-09-14T10:59:22;99655.34;;;18.95;69.27
17525;BME280;40431;52.198;9.902;2022-09-14T11:02:16;99654.47;;;18.94;68.79
17525;BME280;40431;52.198;9.902;2022-09-14T11:07:42;99656.03;;;18.97;70.68
17525;BME280;40431;52.198;9.902;2022-09-14T11:10:17;99641.28;;;19.06;69.98
17525;BME280;40431;52.198;9.902;2022-09-14T11:12:54;99636.81;;;19.13;67.20
17525;BME280;40431;52.198;9.902;2022-09-14T11:15:29;99629.94;;;19.17;67.50
17525;BME280;40431;52.198;9.902;2022-09-14T11:18:13;99630.63;;;19.19;65.47
17525;BME280;40431;52.198;9.902;2022-09-14T11:20:49;99633.72;;;19.25;65.55
17525;BME280;40431;52.198;9.902;2022-09-14T11:23:29;99622.72;;;19.25;66.46
17525;BME280;40431;52.198;9.902;2022-09-14T11:26:01;99621.50;;;19.27;65.25
17525;BME280;40431;52.198;9.902;2022-09-14T11:28:33;99630.13;;;19.24;65.92
17525;BME280;40431;52.198;9.902;2022-09-14T11:31:06;99627.00;;;19.27;66.61
17525;BME280;40431;52.198;9.902;2022-09-14T11:33:37;99625.13;;;19.36;65.57
17525;BME280;40431;52.198;9.902;2022-09-14T11:36:09;99628.19;;;19.33;66.64
17525;BME280;40431;52.198;9.902;2022-09-14T11:38:44;99628.72;;;19.36;67.37
17525;BME280;40431;52.198;9.902;2022-09-14T11:41:18;99624.06;;;19.37;66.97
17525;BME280;40431;52.198;9.902;2022-09-14T11:43:49;99633.72;;;19.41;66.74
17525;BME280;40431;52.198;9.902;2022-09-14T11:46:19;99633.72;;;19.41;65.47
17525;BME280;40431;52.198;9.902;2022-09-14T11:48:52;99630.63;;;19.36;65.51
17525;BME280;40431;52.198;9.902;2022-09-14T11:51:23;99633.34;;;19.28;65.45
17525;BME280;40431;52.198;9.902;2022-09-14T11:53:52;99623.59;;;19.09;65.74
17525;BME280;40431;52.198;9.902;2022-09-14T11:56:24;99631.31;;;18.97;66.36
17525;BME280;40431;52.198;9.902;2022-09-14T11:58:53;99637.44;;;18.74;66.86
17525;BME280;40431;52.198;9.902;2022-09-14T12:01:29;99634.34;;;18.77;66.21
17525;BME280;40431;52.198;9.902;2022-09-14T12:04:09;99631.44;;;18.79;66.36
17525;BME280;40431;52.198;9.902;2022-09-14T12:06:48;99637.28;;;18.84;67.45
17525;BME280;40431;52.198;9.902;2022-09-14T12:09:47;99638.88;;;18.95;67.75
17525;BME280;40431;52.198;9.902;2022-09-14T12:12:31;99633.88;;;18.98;66.19
17525;BME280;40431;52.198;9.902;2022-09-14T12:15:00;99639.19;;;18.92;65.98
17525;BME280;40431;52.198;9.902;2022-09-14T12:17:31;99627.81;;;18.78;66.82
17525;BME280;40431;52.198;9.902;2022-09-14T12:20:22;99632.94;;;18.65;66.69
17525;BME280;40431;52.198;9.902;2022-09-14T12:23:03;99619.22;;;18.73;67.54
17525;BME280;40431;52.198;9.902;2022-09-14T12:25:32;99620.59;;;18.77;67.14
17525;BME280;40431;52.198;9.902;2022-09-14T12:27:59;99616.53;;;18.81;66.11
17525;BME280;40431;52.198;9.902;2022-09-14T12:30:33;99609.78;;;18.76;66.96
17525;BME280;40431;52.198;9.902;2022-09-14T12:33:43;99608.78;;;18.85;68.62
17525;BME280;40431;52.198;9.902;2022-09-14T12:36:55;99604.84;;;18.96;68.63
17525;BME280;40431;52.198;9.902;2022-09-14T12:39:24;99603.66;;;18.98;68.09
17525;BME280;40431;52.198;9.902;2022-09-14T12:42:25;99604.88;;;19.04;69.00
17525;BME280;40431;52.198;9.902;2022-09-14T12:44:52;99601.44;;;19.02;66.56
17525;BME280;40431;52.198;9.902;2022-09-14T12:47:47;99602.81;;;19.06;66.30
17525;BME280;40431;52.198;9.902;2022-09-14T12:50:18;99605.56;;;19.06;66.34
17525;BME280;40431;52.198;9.902;2022-09-14T12:52:58;99602.47;;;19.01;66.06
17525;BME280;40431;52.198;9.902;2022-09-14T12:55:42;99598.69;;;18.94;66.56
17525;BME280;40431;52.198;9.902;2022-09-14T12:58:23;99608.94;;;18.83;66.39
17525;BME280;40431;52.198;9.902;2022-09-14T13:01:00;99609.31;;;18.80;66.63
17525;BME280;40431;52.198;9.902;2022-09-14T13:03:43;99609.78;;;18.76;67.26
17525;BME280;40431;52.198;9.902;2022-09-14T13:06:13;99593.50;;;18.66;67.86
17525;BME280;40431;52.198;9.902;2022-09-14T13:08:43;99598.63;;;18.61;68.01
17525;BME280;40431;52.198;9.902;2022-09-14T13:11:18;99592.13;;;18.53;67.32
17525;BME280;40431;52.198;9.902;2022-09-14T13:13:46;99598.63;;;18.61;67.78
17525;BME280;40431;52.198;9.902;2022-09-14T13:16:16;99589.19;;;18.55;67.73
17525;BME280;40431;52.198;9.902;2022-09-14T13:18:44;99595.19;;;18.50;68.40